Time;durP1;ratioP1;P1;durP2;ratioP2;P2;SDS_P1;SDS_P2;PMS_P1;PMS_P2;Temp;Humidity;BMP_temperature;BMP_pressure;BME280_temperature;BME280_humidity;BME280_pressure;Samples;Min_cycle;Max_cycle;Signal;HPM_P1;HPM_P2
2023/01/02 00:01:08;;;;;;;;;5.00;5.00;;;;;20.98;43.72;100756.81;5078719;28;45329;-42
2023/01/02 00:03:33;;;;;;;;;5.00;4.33;;;;;20.97;43.63;100755.13;5078431;28;45917;-46
2023/01/02 00:06:03;;;;;;;;;6.00;4.50;;;;;20.96;43.81;100746.38;5079018;28;45410;-41
2023/01/02 00:08:29;;;;;;;;;5.00;5.00;;;;;20.94;43.63;100755.34;5079328;28;45406;-43
2023/01/02 00:10:54;;;;;;;;;5.00;3.50;;;;;20.95;43.64;100763.13;5079521;28;46013;-43
2023/01/02 00:13:20;;;;;;;;;4.00;4.00;;;;;20.95;43.55;100762.25;5078984;28;45279;-43
2023/01/02 00:15:45;;;;;;;;;4.50;4.00;;;;;20.94;43.60;100766.69;5078308;28;55743;-43
2023/01/02 00:18:10;;;;;;;;;5.25;4.00;;;;;20.93;43.74;100767.63;5078620;28;54155;-45
2023/01/02 00:20:35;;;;;;;;;3.00;3.00;;;;;20.89;43.72;100779.28;5078796;28;45441;-40
2023/01/02 00:23:01;;;;;;;;;4.67;4.00;;;;;20.92;43.47;100779.09;5078380;28;57093;-44
2023/01/02 00:25:26;;;;;;;;;4.50;4.50;;;;;20.91;43.54;100782.69;5078955;28;46139;-44
2023/01/02 00:27:51;;;;;;;;;3.00;3.00;;;;;20.90;43.92;100782.78;5078787;28;45409;-45
2023/01/02 00:30:17;;;;;;;;;4.00;4.00;;;;;20.90;43.72;100783.63;5078495;28;55290;-44
2023/01/02 00:32:42;;;;;;;;;8.00;5.00;;;;;20.84;43.38;100774.28;5078590;28;45253;-44
2023/01/02 00:35:08;;;;;;;;;5.00;3.25;;;;;20.84;43.95;100776.91;5078106;28;46161;-41
2023/01/02 00:37:33;;;;;;;;;4.00;3.00;;;;;20.83;43.80;100774.38;5080155;28;45327;-45
2023/01/02 00:39:58;;;;;;;;;5.25;4.00;;;;;20.89;43.77;100776.66;5096801;28;45409;-46
2023/01/02 00:42:24;;;;;;;;;3.00;3.00;;;;;20.88;43.83;100777.59;5078835;28;55736;-45
2023/01/02 00:44:49;;;;;;;;;7.75;4.25;;;;;20.87;43.71;100775.91;5078741;28;45437;-46
2023/01/02 00:47:14;;;;;;;;;3.75;3.50;;;;;20.81;44.03;100766.56;5079070;28;45358;-43
2023/01/02 00:49:39;;;;;;;;;4.75;3.00;;;;;20.81;44.01;100777.09;5078843;28;45359;-43
2023/01/02 00:52:05;;;;;;;;;4.00;4.00;;;;;20.86;43.86;100784.75;5078815;28;45549;-44
2023/01/02 00:54:30;;;;;;;;;7.00;5.00;;;;;20.85;43.88;100777.78;5087332;28;55176;-43
2023/01/02 00:56:55;;;;;;;;;3.00;3.00;;;;;20.84;43.65;100776.91;5097208;28;65011;-45
2023/01/02 00:59:20;;;;;;;;;4.00;3.00;;;;;20.84;43.55;100778.72;5093596;28;45366;-43
2023/01/02 01:01:46;;;;;;;;;3.00;3.00;;;;;20.79;43.83;100768.44;5078259;28;48454;-44
2023/01/02 01:04:12;;;;;;;;;5.00;5.00;;;;;20.84;43.85;100781.34;5078300;28;45456;-43
2023/01/02 01:06:37;;;;;;;;;3.75;2.25;;;;;20.82;43.96;100784.09;5078216;28;45451;-45
2023/01/02 01:09:02;;;;;;;;;3.50;2.75;;;;;20.82;43.46;100783.22;5079706;28;45446;-42
2023/01/02 01:11:28;;;;;;;;;4.75;3.00;;;;;20.82;43.86;100783.22;5080368;28;45543;-44
2023/01/02 01:13:53;;;;;;;;;4.75;2.75;;;;;20.82;43.93;100778.81;5081208;28;46286;-43
2023/01/02 01:16:20;;;;;;;;;2.33;2.33;;;;;20.81;43.85;100781.50;5086484;28;56693;-43
2023/01/02 01:18:45;;;;;;;;;4.00;3.00;;;;;20.81;43.96;100776.25;5093404;28;45310;-42
2023/01/02 01:21:17;;;;;;;;;4.00;4.00;;;;;20.79;43.86;100789.50;5090784;28;45507;-46
2023/01/02 01:23:43;;;;;;;;;2.50;2.50;;;;;20.74;43.87;100782.78;5103123;28;46633;-42
2023/01/02 01:26:12;;;;;;;;;3.00;3.00;;;;;20.78;43.99;100797.53;5089409;28;45446;-44
2023/01/02 01:28:38;;;;;;;;;3.00;1.50;;;;;20.73;44.16;100786.34;5079070;28;45220;-42
2023/01/02 01:31:06;;;;;;;;;5.00;3.25;;;;;20.72;44.17;100784.66;5078187;28;45409;-45
2023/01/02 01:33:32;;;;;;;;;3.25;2.50;;;;;20.78;44.12;100793.09;5078412;28;45477;-42
2023/01/02 01:36:05;;;;;;;;;4.00;4.00;;;;;20.78;43.95;100792.25;5078352;28;45425;-42
2023/01/02 01:38:31;;;;;;;;;4.75;2.75;;;;;20.78;44.03;100781.72;5078542;28;45275;-41
2023/01/02 01:40:56;;;;;;;;;2.00;1.00;;;;;20.75;43.78;100781.88;5078629;28;45469;-43
2023/01/02 01:43:36;;;;;;;;;2.75;2.00;;;;;20.76;43.92;100771.25;5082471;28;46034;-42
2023/01/02 01:46:02;;;;;;;;;3.00;3.00;;;;;20.76;44.06;100781.78;5081446;28;45275;-43
2023/01/02 01:48:28;;;;;;;;;3.00;3.00;;;;;20.74;44.20;100786.28;5078374;28;45257;-41
2023/01/02 01:50:53;;;;;;;;;4.00;2.25;;;;;20.76;44.24;100788.84;5078432;28;45410;-42
2023/01/02 01:53:21;;;;;;;;;2.00;2.00;;;;;20.76;44.12;100804.66;5077527;28;45345;-42
2023/01/02 01:55:59;;;;;;;;;2.00;2.00;;;;;20.75;44.21;100810.84;5077672;28;46000;-41
2023/01/02 01:58:34;;;;;;;;;4.00;3.00;;;;;20.75;44.12;100816.94;5071958;28;45369;-42
2023/01/02 02:01:01;;;;;;;;;3.00;3.00;;;;;20.69;43.81;100815.47;5083592;28;45335;-41
2023/01/02 02:03:29;;;;;;;;;3.00;3.00;;;;;20.70;44.10;100822.44;5085648;28;45360;-43
2023/01/02 02:05:58;;;;;;;;;3.25;3.00;;;;;20.66;44.25;100825.34;5082867;28;45275;-41
2023/01/02 02:08:51;;;;;;;;;2.50;2.50;;;;;20.69;43.90;100830.44;5078195;28;45342;-42
2023/01/02 02:11:17;;;;;;;;;3.25;3.25;;;;;20.74;44.41;100853.91;5078215;28;45354;-42
2023/01/02 02:13:43;;;;;;;;;4.50;3.00;;;;;20.68;44.26;100839.28;5077415;28;46253;-45
2023/01/02 02:16:43;;;;;;;;;3.00;2.00;;;;;20.72;43.76;100861.03;5077628;28;45807;-43
2023/01/02 02:19:44;;;;;;;;;3.50;3.00;;;;;20.73;44.26;100862.72;5045373;28;45334;-43
2023/01/02 02:22:36;;;;;;;;;2.00;2.00;;;;;20.72;43.95;100861.03;5077630;28;45263;-41
2023/01/02 02:25:26;;;;;;;;;3.50;2.75;;;;;20.71;44.03;100870.72;5077016;28;46324;-44
2023/01/02 02:28:03;;;;;;;;;3.75;3.75;;;;;20.72;44.23;100874.19;5076948;28;45761;-47
2023/01/02 02:30:37;;;;;;;;;4.00;3.00;;;;;20.66;44.22;100860.44;5077636;28;45316;-43
2023/01/02 02:33:41;;;;;;;;;2.50;2.50;;;;;20.70;44.16;100863.75;5098765;28;44823;-44
2023/01/02 02:36:31;;;;;;;;;3.00;2.00;;;;;20.63;44.51;100855.34;5085323;28;45389;-43
2023/01/02 02:39:12;;;;;;;;;4.00;2.00;;;;;20.69;44.45;100867.31;5079774;28;45849;-43
2023/01/02 02:41:49;;;;;;;;;2.00;2.00;;;;;20.69;44.54;100875.22;5079266;28;45218;-42
2023/01/02 02:44:23;;;;;;;;;2.25;1.00;;;;;20.68;43.98;100871.72;5080151;28;45263;-41
2023/01/02 02:47:04;;;;;;;;;2.50;2.50;;;;;20.68;44.39;100869.09;5079713;28;46128;-43
2023/01/02 02:49:48;;;;;;;;;1.75;1.75;;;;;20.65;44.26;100871.91;5079569;28;45486;-42
2023/01/02 02:52:19;;;;;;;;;3.00;3.00;;;;;20.62;44.60;100863.31;5079350;28;45321;-41
2023/01/02 02:54:47;;;;;;;;;3.00;1.50;;;;;20.68;44.17;100855.09;5081196;28;45442;-42
2023/01/02 02:57:14;;;;;;;;;2.00;2.00;;;;;20.68;44.21;100860.34;5079843;28;45419;-44
2023/01/02 02:59:40;;;;;;;;;3.50;2.00;;;;;20.66;44.15;100860.44;5080122;28;45781;-44
2023/01/02 03:02:06;;;;;;;;;3.00;2.00;;;;;20.67;44.44;100863.91;5080393;28;45315;-43
2023/01/02 03:04:31;;;;;;;;;2.00;2.00;;;;;20.65;44.38;100874.56;5080130;28;45598;-41
2023/01/02 03:07:05;;;;;;;;;1.75;1.50;;;;;20.66;44.04;100868.34;5079889;28;46166;-45
2023/01/02 03:09:49;;;;;;;;;3.00;2.00;;;;;20.67;44.32;100877.91;5080146;28;45787;-43
2023/01/02 03:12:45;;;;;;;;;2.25;2.25;;;;;20.67;44.37;100880.56;5080932;28;45330;-41
2023/01/02 03:15:36;;;;;;;;;2.00;2.00;;;;;20.67;44.17;100880.56;5095166;28;45339;-41
2023/01/02 03:18:29;;;;;;;;;2.00;2.00;;;;;20.66;44.74;100873.63;5095109;28;45413;-42
2023/01/02 03:21:06;;;;;;;;;2.25;2.25;;;;;20.59;44.43;100864.34;5084231;28;45735;-42
2023/01/02 03:23:38;;;;;;;;;1.75;1.75;;;;;20.65;44.71;100874.56;5094931;28;44674;-47
2023/01/02 03:26:04;;;;;;;;;2.75;1.00;;;;;20.58;44.40;100862.63;5096897;28;45245;-45
2023/01/02 03:28:31;;;;;;;;;1.75;1.75;;;;;20.66;44.71;100872.75;5089671;28;46232;-40
2023/01/02 03:31:01;;;;;;;;;1.00;1.00;;;;;20.60;44.57;100865.19;5083151;28;45410;-45
2023/01/02 03:33:31;;;;;;;;;2.00;2.00;;;;;20.65;44.64;100876.31;5092263;28;45457;-40
2023/01/02 03:36:04;;;;;;;;;1.00;1.00;;;;;20.64;44.38;100872.84;5080674;28;45356;-47
2023/01/02 03:38:38;;;;;;;;;1.00;1.00;;;;;20.62;44.41;100872.06;5079888;28;46009;-46
2023/01/02 03:41:19;;;;;;;;;4.00;1.00;;;;;20.59;44.48;100872.22;5081994;28;45331;-47
2023/01/02 03:43:48;;;;;;;;;1.00;1.00;;;;;20.57;44.25;100879.38;5081844;28;45322;-46
2023/01/02 03:46:36;;;;;;;;;0.00;0.00;;;;;20.61;44.40;100894.06;5062895;28;45294;-40
2023/01/02 03:49:10;;;;;;;;;2.75;2.75;;;;;20.62;44.25;100903.69;5062804;28;46201;-44
2023/01/02 03:51:36;;;;;;;;;1.00;1.00;;;;;20.62;44.67;100914.22;5080385;28;45312;-44
2023/01/02 03:54:03;;;;;;;;;1.00;1.00;;;;;20.62;44.74;100915.97;5079866;28;45317;-44
2023/01/02 03:56:28;;;;;;;;;1.00;1.00;;;;;20.62;44.51;100916.84;5079739;28;45390;-42
2023/01/02 03:59:05;;;;;;;;;1.33;1.33;;;;;20.63;44.47;100920.31;5061481;28;48507;-44
2023/01/02 04:01:48;;;;;;;;;1.00;1.00;;;;;20.58;44.60;100912.66;5096987;28;45485;-43
2023/01/02 04:04:20;;;;;;;;;2.75;1.00;;;;;20.60;44.74;100921.34;5103928;28;44660;-45
2023/01/02 04:06:50;;;;;;;;;1.00;1.00;;;;;20.60;44.89;100921.34;5081923;28;45217;-42
2023/01/02 04:09:19;;;;;;;;;1.00;1.00;;;;;20.58;44.54;100917.94;5078619;28;46308;-48
2023/01/02 04:11:50;;;;;;;;;1.00;1.00;;;;;20.53;44.42;100918.19;5079926;28;45703;-46
2023/01/02 04:14:22;;;;;;;;;1.00;1.00;;;;;20.60;44.75;100921.34;5078995;28;45410;-47
2023/01/02 04:16:49;;;;;;;;;1.75;0.50;;;;;20.60;44.67;100917.88;5079244;28;45335;-44
2023/01/02 04:19:23;;;;;;;;;2.00;0.50;;;;;20.60;44.95;100923.13;5079651;28;45334;-48
2023/01/02 04:21:54;;;;;;;;;0.25;0.25;;;;;20.60;44.86;100920.50;5085302;28;45724;-46
2023/01/02 04:24:42;;;;;;;;;1.75;1.00;;;;;20.60;44.36;100929.25;5083817;28;45727;-43
2023/01/02 04:27:33;;;;;;;;;1.00;1.00;;;;;20.53;44.64;100925.25;5080234;28;45516;-43
2023/01/02 04:29:59;;;;;;;;;3.00;1.00;;;;;20.59;44.77;100934.59;5078855;28;46223;-42
2023/01/02 04:32:32;;;;;;;;;1.25;1.25;;;;;20.56;44.75;100932.97;5079254;28;45443;-43
2023/01/02 04:35:04;;;;;;;;;2.00;0.00;;;;;20.52;44.68;100929.66;5079927;28;45195;-43
2023/01/02 04:37:35;;;;;;;;;0.75;0.75;;;;;20.53;44.97;100930.50;5099433;28;44823;-46
2023/01/02 04:40:16;;;;;;;;;1.25;0.00;;;;;20.51;44.73;100930.56;5080027;28;46084;-45
2023/01/02 04:42:41;;;;;;;;;1.25;1.25;;;;;20.59;44.38;100948.59;5079565;28;45650;-41
2023/01/02 04:45:07;;;;;;;;;3.00;1.00;;;;;20.53;44.50;100947.16;5079024;28;45267;-41
2023/01/02 04:47:33;;;;;;;;;1.00;1.00;;;;;20.56;44.62;100956.66;5079280;28;45484;-44
2023/01/02 04:49:58;;;;;;;;;0.00;0.00;;;;;20.56;44.76;100967.19;5078286;28;45198;-41
2023/01/02 04:52:24;;;;;;;;;1.00;1.00;;;;;20.55;44.82;100966.34;5089326;28;45284;-43
2023/01/02 04:54:49;;;;;;;;;0.50;0.25;;;;;20.54;44.64;100969.09;5093228;28;45180;-41
2023/01/02 04:57:14;;;;;;;;;0.00;0.00;;;;;20.51;44.99;100970.06;5095150;28;45621;-45
2023/01/02 04:59:39;;;;;;;;;0.00;0.00;;;;;20.53;44.75;100977.91;5087557;28;45300;-41
2023/01/02 05:02:05;;;;;;;;;0.00;0.00;;;;;20.53;44.68;100980.53;5078587;28;45174;-43
2023/01/02 05:04:30;;;;;;;;;0.00;0.00;;;;;20.51;45.00;100983.22;5077236;28;53430;-43
2023/01/02 05:06:56;;;;;;;;;1.00;1.00;;;;;20.51;44.69;100983.22;5078021;28;47383;-43
2023/01/02 05:09:21;;;;;;;;;1.00;0.25;;;;;20.53;45.07;100989.28;5077132;28;65231;-44
2023/01/02 05:11:46;;;;;;;;;0.00;0.00;;;;;20.51;44.64;100999.03;5085300;28;45346;-44
2023/01/02 05:14:11;;;;;;;;;0.00;0.00;;;;;20.52;45.11;101007.81;5087899;28;45506;-43
2023/01/02 05:16:37;;;;;;;;;0.00;0.00;;;;;20.52;44.61;101005.16;5078968;28;48482;-40
2023/01/02 05:19:02;;;;;;;;;0.00;0.00;;;;;20.46;45.14;101011.59;5080503;28;52713;-43
2023/01/02 05:24:13;;;;;;;;;0.00;0.00;;;;;20.50;45.02;101022.81;5037342;28;45967;-42
2023/01/02 05:26:38;;;;;;;;;0.25;0.00;;;;;20.51;45.16;101024.53;5079047;28;45520;-44
2023/01/02 05:29:04;;;;;;;;;0.50;0.00;;;;;20.49;45.14;101023.75;5077952;28;50900;-42
2023/01/02 05:31:29;;;;;;;;;1.00;1.00;;;;;20.49;45.33;101035.16;5077428;28;53104;-44
2023/01/02 05:33:56;;;;;;;;;1.00;0.00;;;;;20.49;44.72;101039.53;5077197;28;51204;-43
2023/01/02 05:36:23;;;;;;;;;0.00;0.00;;;;;20.50;45.23;101041.25;5078655;28;45505;-41
2023/01/02 05:38:48;;;;;;;;;0.00;0.00;;;;;20.42;44.99;101043.44;5078190;28;46130;-45
2023/01/02 05:41:14;;;;;;;;;0.00;0.00;;;;;20.49;45.36;101057.97;5077993;28;45341;-47
2023/01/02 05:43:39;;;;;;;;;0.00;0.00;;;;;20.49;45.29;101068.50;5078291;28;45161;-41
2023/01/02 05:46:15;;;;;;;;;0.50;0.50;;;;;20.48;45.10;101064.16;5078728;28;45232;-43
2023/01/02 05:48:43;;;;;;;;;0.00;0.00;;;;;20.47;44.83;101067.72;5080497;28;45311;-42
2023/01/02 05:51:11;;;;;;;;;0.00;0.00;;;;;20.47;45.38;101060.69;5098578;28;45113;-41
2023/01/02 05:53:36;;;;;;;;;0.00;0.00;;;;;20.47;45.25;101073.88;5090078;28;45281;-44
2023/01/02 05:56:07;;;;;;;;;0.00;0.00;;;;;20.46;45.62;101076.56;5094047;28;45263;-43
2023/01/02 05:58:37;;;;;;;;;0.50;0.50;;;;;20.47;45.81;101075.63;5087025;28;45390;-41
2023/01/02 06:01:11;;;;;;;;;2.25;1.25;;;;;20.46;46.06;101058.13;5077776;28;45831;-45
2023/01/02 06:03:36;;;;;;;;;2.00;1.00;;;;;20.45;46.92;101056.44;5077891;28;45442;-45
2023/01/02 06:06:07;;;;;;;;;0.00;0.00;;;;;20.55;47.29;101069.03;5077792;28;45343;-51
2023/01/02 06:08:33;;;;;;;;;2.25;1.00;;;;;20.51;47.21;101059.59;5077173;28;45295;-47
2023/01/02 06:10:59;;;;;;;;;2.00;0.00;;;;;20.60;47.84;101081.13;5077635;28;45484;-42
2023/01/02 06:13:24;;;;;;;;;1.50;1.00;;;;;20.62;47.78;101081.88;5096079;27;44659;-46
2023/01/02 06:15:50;;;;;;;;;1.00;1.00;;;;;20.64;48.09;101085.28;5091332;28;45434;-45
2023/01/02 06:18:15;;;;;;;;;1.00;1.00;;;;;20.65;48.04;101079.97;5041688;28;47547;-45
2023/01/02 06:20:41;;;;;;;;;1.00;0.00;;;;;20.65;47.87;101087.88;5058183;28;45455;-56
2023/01/02 06:23:06;;;;;;;;;2.00;1.00;;;;;20.67;48.39;101096.50;5077206;28;45343;-48
2023/01/02 06:25:33;;;;;;;;;2.50;1.00;;;;;20.69;48.42;101104.34;5076750;28;45374;-45
2023/01/02 06:27:58;;;;;;;;;1.00;1.00;;;;;20.69;48.04;101102.56;5076743;28;46197;-43
2023/01/02 06:30:23;;;;;;;;;0.50;0.50;;;;;20.65;47.98;101098.41;5076778;28;45292;-40
2023/01/02 06:32:49;;;;;;;;;0.50;0.00;;;;;20.70;47.70;101100.78;5078050;28;45372;-45
2023/01/02 06:35:14;;;;;;;;;0.00;0.00;;;;;20.71;47.92;101105.13;5077465;28;53232;-44
2023/01/02 06:37:43;;;;;;;;;0.00;0.00;;;;;20.68;47.51;101113.19;5077658;28;46235;-44
2023/01/02 06:40:08;;;;;;;;;0.00;0.00;;;;;20.67;47.45;101122.84;5077516;28;45316;-43
2023/01/02 06:42:34;;;;;;;;;0.00;0.00;;;;;20.67;47.13;101125.50;5089500;28;45431;-48
2023/01/02 06:44:59;;;;;;;;;0.00;0.00;;;;;20.67;46.77;101130.75;5095059;28;56119;-42
2023/01/02 06:47:24;;;;;;;;;0.00;0.00;;;;;20.65;47.10;101135.28;5090082;28;45452;-42
2023/01/02 06:49:50;;;;;;;;;0.00;0.00;;;;;20.66;47.13;101128.22;5077969;28;45422;-43
2023/01/02 06:52:15;;;;;;;;;0.00;0.00;;;;;20.63;46.89;101131.84;5080288;28;45407;-49
2023/01/02 06:54:40;;;;;;;;;0.00;0.00;;;;;20.58;47.05;101128.59;5078775;28;45541;-44
2023/01/02 06:57:06;;;;;;;;;0.00;0.00;;;;;20.61;46.69;101125.81;5085401;28;46276;-46
2023/01/02 06:59:31;;;;;;;;;0.50;0.00;;;;;20.60;46.93;101121.47;5098620;28;44691;-44
2023/01/02 07:01:56;;;;;;;;;0.25;0.00;;;;;20.59;46.55;101119.75;5098856;28;45382;-43
2023/01/02 07:04:22;;;;;;;;;0.25;0.00;;;;;20.58;46.66;101115.44;5092403;28;45474;-45
2023/01/02 07:06:47;;;;;;;;;0.00;0.00;;;;;20.57;47.12;101108.44;5093035;28;47957;-47
2023/01/02 07:09:12;;;;;;;;;0.00;0.00;;;;;20.58;46.70;101119.84;5096183;28;59790;-46
2023/01/02 07:11:38;;;;;;;;;0.00;0.00;;;;;20.50;46.61;101122.88;5094372;28;54771;-45
2023/01/02 07:14:03;;;;;;;;;0.50;0.00;;;;;20.55;46.75;101128.78;5086792;28;45181;-44
2023/01/02 07:16:28;;;;;;;;;0.00;0.00;;;;;20.55;46.73;101131.41;5090264;28;57303;-42
2023/01/02 07:18:54;;;;;;;;;3.00;0.00;;;;;20.54;46.96;101137.59;5078627;28;45292;-45
2023/01/02 07:21:20;;;;;;;;;0.75;0.00;;;;;20.53;46.99;101141.16;5079412;28;45241;-43
2023/01/02 07:23:45;;;;;;;;;0.00;0.00;;;;;20.52;46.87;101148.19;5079928;28;45257;-49
2023/01/02 07:26:12;;;;;;;;;0.00;0.00;;;;;20.52;46.74;101150.00;5100912;27;45269;-47
2023/01/02 07:28:37;;;;;;;;;0.50;0.00;;;;;20.46;46.84;101139.75;5082646;28;45926;-42
2023/01/02 07:31:07;;;;;;;;;0.00;0.00;;;;;20.51;46.44;101148.28;5079979;28;45372;-41
2023/01/02 07:33:33;;;;;;;;;1.00;0.00;;;;;20.45;46.57;101143.34;5079884;28;45503;-45
2023/01/02 07:36:00;;;;;;;;;1.00;0.00;;;;;20.49;46.59;101148.38;5079105;28;45327;-43
2023/01/02 07:38:27;;;;;;;;;1.00;0.00;;;;;20.48;46.77;101151.94;5079210;28;45227;-45
2023/01/02 07:40:52;;;;;;;;;1.00;0.00;;;;;20.46;47.21;101153.78;5079391;28;45347;-43
2023/01/02 07:43:18;;;;;;;;;0.00;0.00;;;;;20.47;47.20;101163.38;5079709;28;45637;-47
2023/01/02 07:45:44;;;;;;;;;0.00;0.00;;;;;20.46;47.26;101159.03;5079053;28;47089;-47
2023/01/02 07:48:09;;;;;;;;;0.00;0.00;;;;;20.46;46.72;101166.94;5078588;28;59169;-41
2023/01/02 07:50:34;;;;;;;;;0.75;0.75;;;;;20.46;47.07;101176.59;5079077;28;45342;-48
2023/01/02 07:52:59;;;;;;;;;0.00;0.00;;;;;20.43;47.00;101171.50;5078687;28;45634;-58
2023/01/02 07:55:25;;;;;;;;;0.00;0.00;;;;;20.39;46.99;101176.09;5060513;28;58317;-64
2023/01/02 07:57:50;;;;;;;;;3.00;0.00;;;;;20.37;47.18;101177.94;5079089;28;45573;-60
2023/01/02 08:00:17;;;;;;;;;0.00;0.00;;;;;20.46;46.93;101189.78;5079541;28;45414;-46
2023/01/02 08:02:42;;;;;;;;;0.00;0.00;;;;;20.38;46.61;101191.00;5091899;28;45567;-44
2023/01/02 08:05:08;;;;;;;;;0.00;0.00;;;;;20.45;46.95;101201.25;5100597;28;45425;-44
2023/01/02 08:07:33;;;;;;;;;0.00;0.00;;;;;20.38;46.84;101188.38;5087977;28;45223;-44
2023/01/02 08:09:58;;;;;;;;;0.00;0.00;;;;;20.37;47.04;101205.09;5090991;28;52065;-45
2023/01/02 08:12:23;;;;;;;;;0.00;0.00;;;;;20.42;46.56;101223.31;5093692;28;45631;-44
2023/01/02 08:14:49;;;;;;;;;0.00;0.00;;;;;20.42;46.55;101228.56;5092578;28;45162;-43
2023/01/02 08:17:14;;;;;;;;;0.00;0.00;;;;;20.36;46.46;101218.34;5101179;28;56325;-45
2023/01/02 08:19:39;;;;;;;;;0.00;0.00;;;;;20.41;46.33;101226.84;5090517;28;45240;-43
2023/01/02 08:22:05;;;;;;;;;1.00;0.00;;;;;20.38;46.47;101222.59;5078295;28;57494;-43
2023/01/02 08:24:30;;;;;;;;;0.00;0.00;;;;;20.37;46.65;101220.91;5077822;28;47243;-47
2023/01/02 08:26:56;;;;;;;;;0.00;0.00;;;;;20.39;46.35;101234.84;5078648;28;45232;-41
2023/01/02 08:29:21;;;;;;;;;0.00;0.00;;;;;20.39;46.38;101244.53;5078062;28;45243;-42
2023/01/02 08:31:46;;;;;;;;;1.00;0.00;;;;;20.37;46.39;101249.00;5078209;28;45510;-43
2023/01/02 08:34:13;;;;;;;;;0.00;0.00;;;;;20.35;46.29;101249.06;5096610;28;45220;-48
